Time;durP1;ratioP1;P1;durP2;ratioP2;P2;SDS_P1;SDS_P2;PMS_P1;PMS_P2;Temp;Humidity;BMP_temperature;BMP_pressure;BME280_temperature;BME280_humidity;BME280_pressure;Samples;Min_cycle;Max_cycle;Signal;HPM_P1;HPM_P2
2022/08/06 00:02:20;;;;;;;;;;;;;;;16.53;56.70;100424.34;4997619;28;1010;-60
2022/08/06 00:04:46;;;;;;;;;;;;;;;16.47;56.76;100420.81;4996240;28;892;-60
2022/08/06 00:07:11;;;;;;;;;;;;;;;16.48;56.46;100427.13;4997328;28;892;-60
2022/08/06 00:09:37;;;;;;;;;;;;;;;16.41;56.66;100428.25;4984486;28;1002;-60
2022/08/06 00:12:04;;;;;;;;;;;;;;;16.39;56.71;100427.69;4997831;28;995;-61
2022/08/06 00:14:30;;;;;;;;;;;;;;;16.37;56.54;100429.09;4997232;28;1898;-61
2022/08/06 00:16:55;;;;;;;;;;;;;;;16.37;56.46;100427.16;4989995;28;847;-60
2022/08/06 00:19:21;;;;;;;;;;;;;;;16.36;56.32;100419.22;4989345;28;1239;-61
2022/08/06 00:21:46;;;;;;;;;;;;;;;16.37;56.61;100410.69;4996412;28;1022;-61
2022/08/06 00:24:12;;;;;;;;;;;;;;;16.29;56.43;100407.72;4991249;28;1224;-61
2022/08/06 00:26:38;;;;;;;;;;;;;;;16.28;56.56;100414.31;4997117;28;978;-61
2022/08/06 00:29:04;;;;;;;;;;;;;;;16.25;56.62;100413.75;5006011;28;1582;-61
2022/08/06 00:31:29;;;;;;;;;;;;;;;16.30;56.40;100418.41;4995695;28;1050;-61
2022/08/06 00:33:55;;;;;;;;;;;;;;;16.27;56.65;100418.97;4997196;28;1964;-60
2022/08/06 00:36:21;;;;;;;;;;;;;;;16.50;57.24;100413.94;4996452;28;994;-60
2022/08/06 00:38:47;;;;;;;;;;;;;;;17.61;57.98;100415.38;4996980;28;995;-61
2022/08/06 00:41:14;;;;;;;;;;;;;;;16.97;58.77;100415.38;4991837;28;987;-60
2022/08/06 00:43:40;;;;;;;;;;;;;;;16.84;58.24;100407.72;5011867;28;1038;-60
2022/08/06 00:46:06;;;;;;;;;;;;;;;16.71;57.71;100404.47;4996972;28;1010;-60
2022/08/06 00:48:31;;;;;;;;;;;;;;;16.68;57.44;100410.53;4996821;28;1216;-61
2022/08/06 00:50:57;;;;;;;;;;;;;;;16.58;57.24;100410.63;4990142;28;1018;-60
2022/08/06 00:53:22;;;;;;;;;;;;;;;16.57;56.71;100414.44;4988890;28;1066;-60
2022/08/06 00:55:48;;;;;;;;;;;;;;;16.46;56.98;100412.88;4993039;28;1914;-59
2022/08/06 00:58:13;;;;;;;;;;;;;;;16.48;56.90;100411.50;4987281;28;983;-60
2022/08/06 01:00:38;;;;;;;;;;;;;;;16.48;56.56;100416.13;4996737;28;1022;-60
2022/08/06 01:03:04;;;;;;;;;;;;;;;16.39;56.71;100418.66;4996726;28;991;-60
2022/08/06 01:05:29;;;;;;;;;;;;;;;16.35;56.72;100412.88;4987673;28;979;-59
2022/08/06 01:07:55;;;;;;;;;;;;;;;16.42;56.58;100423.56;4992356;28;1003;-59
2022/08/06 01:10:22;;;;;;;;;;;;;;;17.20;58.12;100421.25;4993490;28;1062;-60
2022/08/06 01:12:47;;;;;;;;;;;;;;;17.27;58.28;100419.78;4979397;28;1176;-60
2022/08/06 01:15:12;;;;;;;;;;;;;;;16.94;58.17;100415.91;4986923;28;1907;-60
2022/08/06 01:17:42;;;;;;;;;;;;;;;16.84;57.71;100413.19;4991521;28;1157;-59
2022/08/06 01:20:13;;;;;;;;;;;;;;;16.74;57.24;100412.16;4995536;28;1046;-59
2022/08/06 01:22:57;;;;;;;;;;;;;;;16.68;57.35;100405.06;4995458;28;1149;-59
2022/08/06 01:25:41;;;;;;;;;;;;;;;16.63;56.98;100407.81;4996489;28;1015;-59
2022/08/06 01:28:07;;;;;;;;;;;;;;;16.58;56.61;100399.63;4994411;28;1093;-59
2022/08/06 01:30:34;;;;;;;;;;;;;;;16.56;56.75;100399.09;4994089;28;1016;-59
2022/08/06 01:32:59;;;;;;;;;;;;;;;16.50;56.87;100392.00;4999048;28;1117;-60
2022/08/06 01:35:27;;;;;;;;;;;;;;;16.51;56.45;100399.94;5000166;28;1971;-59
2022/08/06 01:37:59;;;;;;;;;;;;;;;16.46;56.37;100401.88;4999075;28;1082;-59
2022/08/06 01:40:26;;;;;;;;;;;;;;;16.43;56.38;100404.06;5000326;28;1124;-59
2022/08/06 01:42:53;;;;;;;;;;;;;;;16.40;56.37;100399.16;4977588;28;1007;-59
2022/08/06 01:45:19;;;;;;;;;;;;;;;16.46;56.20;100393.66;5000035;28;1098;-59
2022/08/06 01:47:45;;;;;;;;;;;;;;;16.38;56.35;100397.78;4993785;28;1063;-59
2022/08/06 01:50:10;;;;;;;;;;;;;;;16.36;56.15;100403.56;4998834;28;974;-60
2022/08/06 01:52:37;;;;;;;;;;;;;;;16.31;56.22;100400.84;5015375;28;1018;-58
2022/08/06 01:55:05;;;;;;;;;;;;;;;16.35;56.21;100401.91;4997808;28;1902;-58
2022/08/06 01:57:30;;;;;;;;;;;;;;;16.24;56.27;100390.19;5007897;28;954;-58
2022/08/06 01:59:56;;;;;;;;;;;;;;;16.18;56.50;100394.03;5000242;28;1018;-59
2022/08/06 02:02:22;;;;;;;;;;;;;;;17.16;58.04;100395.44;4998697;28;999;-59
2022/08/06 02:04:48;;;;;;;;;;;;;;;17.13;58.56;100382.28;4999641;28;987;-58
2022/08/06 02:07:14;;;;;;;;;;;;;;;16.83;58.42;100392.34;4979485;28;989;-59
2022/08/06 02:09:39;;;;;;;;;;;;;;;16.73;57.63;100384.97;4996024;28;1066;-58
2022/08/06 02:12:09;;;;;;;;;;;;;;;16.65;57.58;100385.56;4998152;28;1073;-58
2022/08/06 02:14:37;;;;;;;;;;;;;;;16.57;57.08;100379.59;4998368;28;1979;-58
2022/08/06 02:17:02;;;;;;;;;;;;;;;16.58;57.05;100388.66;4994016;28;1035;-58
2022/08/06 02:19:28;;;;;;;;;;;;;;;16.55;56.75;100384.53;4999861;28;1117;-58
2022/08/06 02:21:53;;;;;;;;;;;;;;;16.48;56.71;100392.28;4999727;28;1065;-58
2022/08/06 02:24:19;;;;;;;;;;;;;;;16.47;56.81;100393.38;4999620;28;999;-58
2022/08/06 02:26:44;;;;;;;;;;;;;;;16.47;56.53;100392.56;5014512;28;1010;-59
2022/08/06 02:29:11;;;;;;;;;;;;;;;16.50;56.24;100389.25;4997237;28;956;-59
2022/08/06 02:31:37;;;;;;;;;;;;;;;16.39;56.63;100392.03;4999224;28;1149;-59
2022/08/06 02:34:02;;;;;;;;;;;;;;;16.33;56.51;100393.16;4997732;28;1909;-58
2022/08/06 02:36:35;;;;;;;;;;;;;;;17.17;58.11;100389.66;4998264;28;1169;-59
2022/08/06 02:39:03;;;;;;;;;;;;;;;17.17;58.22;100392.41;4990447;28;990;-59
2022/08/06 02:41:42;;;;;;;;;;;;;;;16.89;58.14;100397.53;4993838;28;1240;-60
2022/08/06 02:44:22;;;;;;;;;;;;;;;16.75;57.51;100391.84;4996691;28;1130;-58
2022/08/06 02:46:50;;;;;;;;;;;;;;;16.70;57.14;100391.84;4997635;28;1157;-59
2022/08/06 02:49:22;;;;;;;;;;;;;;;16.68;57.01;100398.75;4997765;28;1142;-59
2022/08/06 02:51:51;;;;;;;;;;;;;;;16.60;56.70;100395.47;4987181;28;1861;-59
2022/08/06 02:54:22;;;;;;;;;;;;;;;16.53;56.51;100402.41;4987789;28;2101;-61
2022/08/06 02:56:47;;;;;;;;;;;;;;;16.54;56.68;100409.53;4989462;28;1800;-60
2022/08/06 02:59:13;;;;;;;;;;;;;;;16.49;56.38;100412.28;5004365;28;1925;-60
2022/08/06 03:01:40;;;;;;;;;;;;;;;16.48;56.51;100418.88;4995140;28;1991;-60
2022/08/06 03:04:05;;;;;;;;;;;;;;;16.41;56.36;100406.28;4989520;28;2262;-59
2022/08/06 03:06:32;;;;;;;;;;;;;;;16.38;56.49;100406.88;5008567;28;1962;-61
2022/08/06 03:08:58;;;;;;;;;;;;;;;16.35;56.54;100417.56;4991978;28;1077;-61
2022/08/06 03:11:23;;;;;;;;;;;;;;;16.35;56.47;100412.06;4997885;28;1129;-61
2022/08/06 03:13:49;;;;;;;;;;;;;;;16.30;56.66;100410.19;5013097;28;1899;-61
2022/08/06 03:16:14;;;;;;;;;;;;;;;16.31;56.50;100414.56;4992014;28;999;-62
2022/08/06 03:18:39;;;;;;;;;;;;;;;16.25;56.49;100407.47;4986640;28;1264;-60
2022/08/06 03:21:05;;;;;;;;;;;;;;;16.23;56.38;100410.47;5006363;28;1025;-61
2022/08/06 03:23:31;;;;;;;;;;;;;;;17.10;57.87;100417.44;4995933;28;1118;-61
2022/08/06 03:25:56;;;;;;;;;;;;;;;17.30;58.25;100412.91;4994762;28;998;-61
2022/08/06 03:28:22;;;;;;;;;;;;;;;16.93;58.14;100417.84;4991432;28;1102;-61
2022/08/06 03:30:48;;;;;;;;;;;;;;;16.76;57.93;100418.19;4993141;28;1260;-61
2022/08/06 03:33:13;;;;;;;;;;;;;;;16.71;57.44;100418.22;4997846;28;1245;-61
2022/08/06 03:35:39;;;;;;;;;;;;;;;16.61;57.17;100421.03;4993151;28;1985;-61
2022/08/06 03:38:06;;;;;;;;;;;;;;;16.53;57.25;100407.88;4996375;28;2259;-61
2022/08/06 03:40:31;;;;;;;;;;;;;;;16.53;56.91;100414.19;4997866;28;1137;-61
2022/08/06 03:42:56;;;;;;;;;;;;;;;16.52;56.81;100414.47;4996690;28;840;-61
2022/08/06 03:45:22;;;;;;;;;;;;;;;16.44;56.92;100413.16;4996712;28;1090;-59
2022/08/06 03:47:52;;;;;;;;;;;;;;;16.45;56.65;100417.50;5008260;28;1136;-60
2022/08/06 03:50:21;;;;;;;;;;;;;;;16.45;56.48;100420.25;4999908;28;1089;-60
2022/08/06 03:52:47;;;;;;;;;;;;;;;16.38;56.45;100417.84;4992367;28;1154;-60
2022/08/06 03:55:14;;;;;;;;;;;;;;;16.37;56.40;100416.19;4983522;28;1922;-60
2022/08/06 03:57:40;;;;;;;;;;;;;;;16.34;56.58;100411.28;4988526;28;1118;-58
2022/08/06 04:00:07;;;;;;;;;;;;;;;16.32;56.33;100418.13;5012919;28;1204;-58
2022/08/06 04:02:39;;;;;;;;;;;;;;;17.02;57.55;100431.78;4989429;28;1070;-60
2022/08/06 04:05:05;;;;;;;;;;;;;;;17.26;58.22;100425.56;4994618;28;1054;-59
2022/08/06 04:07:30;;;;;;;;;;;;;;;16.93;58.24;100425.28;4992462;28;2362;-60
2022/08/06 04:09:56;;;;;;;;;;;;;;;16.79;57.61;100421.47;4992886;28;1129;-59
2022/08/06 04:12:21;;;;;;;;;;;;;;;16.69;57.35;100422.34;4986273;28;1110;-59
2022/08/06 04:14:47;;;;;;;;;;;;;;;16.60;57.42;100422.13;5009768;28;1917;-58
2022/08/06 04:17:12;;;;;;;;;;;;;;;16.58;57.01;100422.41;4990307;28;1006;-58
2022/08/06 04:19:37;;;;;;;;;;;;;;;16.54;56.70;100423.25;4990102;28;868;-58
2022/08/06 04:22:03;;;;;;;;;;;;;;;16.55;56.56;100416.66;5002464;28;1018;-57
2022/08/06 04:24:28;;;;;;;;;;;;;;;16.46;56.64;100421.91;4989902;28;1149;-58
2022/08/06 04:26:54;;;;;;;;;;;;;;;16.45;56.77;100412.03;4986570;28;1019;-59
2022/08/06 04:29:19;;;;;;;;;;;;;;;16.41;56.72;100422.75;4986321;28;950;-59
2022/08/06 04:31:45;;;;;;;;;;;;;;;16.42;56.50;100421.66;5006586;28;980;-59
2022/08/06 04:34:11;;;;;;;;;;;;;;;16.40;56.43;100420.31;4990683;28;1918;-58
2022/08/06 04:36:36;;;;;;;;;;;;;;;16.37;56.68;100413.44;5006250;28;1816;-56
2022/08/06 04:39:02;;;;;;;;;;;;;;;16.32;56.67;100407.16;4991411;28;1054;-58
2022/08/06 04:41:27;;;;;;;;;;;;;;;16.32;56.59;100415.41;4991194;28;1188;-59
2022/08/06 04:43:53;;;;;;;;;;;;;;;16.40;56.29;100406.59;4989737;28;924;-57
2022/08/06 04:46:19;;;;;;;;;;;;;;;16.32;56.29;100418.13;4986672;28;1228;-60
2022/08/06 04:48:44;;;;;;;;;;;;;;;16.31;56.46;100425.53;5004388;28;1010;-58
2022/08/06 04:51:10;;;;;;;;;;;;;;;16.69;57.20;100427.84;4985902;28;1217;-57
2022/08/06 04:53:37;;;;;;;;;;;;;;;17.38;57.96;100420.53;4988565;28;1125;-58
2022/08/06 04:56:02;;;;;;;;;;;;;;;16.97;58.25;100426.34;4992638;28;1975;-59
2022/08/06 04:58:27;;;;;;;;;;;;;;;16.77;57.89;100430.81;4988076;28;1026;-60
2022/08/06 05:00:53;;;;;;;;;;;;;;;16.69;57.82;100423.19;4994477;28;1149;-59
2022/08/06 05:03:18;;;;;;;;;;;;;;;16.61;57.46;100432.00;4992473;28;1058;-59
2022/08/06 05:05:48;;;;;;;;;;;;;;;16.57;57.35;100428.19;4988259;28;1133;-59
2022/08/06 05:08:13;;;;;;;;;;;;;;;16.55;57.17;100427.63;4993117;28;2470;-60
2022/08/06 05:10:51;;;;;;;;;;;;;;;16.52;57.20;100422.69;4995402;28;1125;-59
2022/08/06 05:13:16;;;;;;;;;;;;;;;16.52;57.00;100425.44;4983527;28;1061;-59
2022/08/06 05:15:42;;;;;;;;;;;;;;;16.49;56.70;100420.53;4993849;28;1898;-58
2022/08/06 05:18:14;;;;;;;;;;;;;;;16.52;56.65;100423.53;4982036;28;1062;-59
2022/08/06 05:20:40;;;;;;;;;;;;;;;16.49;56.58;100420.53;4994266;28;1030;-59
2022/08/06 05:23:13;;;;;;;;;;;;;;;16.50;56.74;100428.47;4992477;28;1236;-60
2022/08/06 05:25:38;;;;;;;;;;;;;;;16.45;56.85;100422.19;5007610;28;1049;-60
2022/08/06 05:28:04;;;;;;;;;;;;;;;16.43;56.92;100422.47;4991866;28;1180;-59
2022/08/06 05:30:30;;;;;;;;;;;;;;;16.38;56.97;100427.97;4989787;28;1010;-58
2022/08/06 05:32:55;;;;;;;;;;;;;;;16.37;57.05;100420.88;4986390;28;1113;-59
2022/08/06 05:35:21;;;;;;;;;;;;;;;16.42;56.52;100418.94;4982818;28;1967;-55
2022/08/06 05:37:47;;;;;;;;;;;;;;;16.41;56.70;100417.28;4983420;28;2208;-59
2022/08/06 05:40:12;;;;;;;;;;;;;;;16.40;56.80;100421.09;4994979;28;1090;-59
2022/08/06 05:42:37;;;;;;;;;;;;;;;16.37;56.95;100424.44;4992812;28;1022;-59
2022/08/06 05:45:03;;;;;;;;;;;;;;;16.37;56.86;100426.34;4992907;28;1077;-59
2022/08/06 05:47:31;;;;;;;;;;;;;;;16.36;57.26;100435.69;4996087;28;1136;-59
2022/08/06 05:50:00;;;;;;;;;;;;;;;18.04;53.68;100440.28;4988716;28;1002;-59
2022/08/06 05:52:38;;;;;;;;;;;;;;;16.77;55.58;100428.09;5010875;28;1108;-60
2022/08/06 05:55:08;;;;;;;;;;;;;;;16.49;55.02;100437.00;4994081;28;1898;-61
2022/08/06 05:57:53;;;;;;;;;;;;;;;17.43;55.43;100428.75;4995996;28;1173;-60
2022/08/06 06:00:19;;;;;;;;;;;;;;;16.81;55.01;100431.06;4988596;28;987;-59
2022/08/06 06:02:46;;;;;;;;;;;;;;;16.63;53.73;100424.28;4989140;28;1173;-59
2022/08/06 06:05:12;;;;;;;;;;;;;;;16.62;52.92;100422.69;4992674;28;1156;-59
2022/08/06 06:07:38;;;;;;;;;;;;;;;16.57;52.24;100426.25;4981500;28;2258;-60
2022/08/06 06:10:04;;;;;;;;;;;;;;;16.51;51.88;100427.38;5003785;28;1022;-57
2022/08/06 06:12:29;;;;;;;;;;;;;;;17.81;54.45;100430.03;4994532;28;1007;-58
2022/08/06 06:14:55;;;;;;;;;;;;;;;17.12;54.43;100421.84;5009473;28;1956;-57
2022/08/06 06:17:24;;;;;;;;;;;;;;;16.91;53.62;100425.56;5007326;28;1147;-58
2022/08/06 06:19:55;;;;;;;;;;;;;;;16.82;52.75;100426.41;4990461;28;920;-58
2022/08/06 06:22:22;;;;;;;;;;;;;;;16.73;52.20;100413.28;5008462;28;1002;-58
2022/08/06 06:24:52;;;;;;;;;;;;;;;16.69;51.53;100412.19;4985258;28;1166;-58
2022/08/06 06:27:41;;;;;;;;;;;;;;;16.65;51.33;100404.78;4987018;28;1204;-58
2022/08/06 06:30:08;;;;;;;;;;;;;;;16.66;50.77;100406.44;4983644;28;1630;-57
2022/08/06 06:32:38;;;;;;;;;;;;;;;16.66;50.85;100404.53;4990152;28;904;-58
2022/08/06 06:35:12;;;;;;;;;;;;;;;16.60;50.72;100397.41;4998865;28;1909;-58
2022/08/06 06:37:44;;;;;;;;;;;;;;;16.62;50.45;100397.97;4991322;28;2393;-58
2022/08/06 06:40:18;;;;;;;;;;;;;;;17.61;52.72;100404.38;4998620;28;1053;-60
2022/08/06 06:42:45;;;;;;;;;;;;;;;17.07;52.77;100393.31;4993971;28;1097;-57
2022/08/06 06:45:12;;;;;;;;;;;;;;;17.01;51.72;100390.88;4994723;28;1093;-58
2022/08/06 06:47:44;;;;;;;;;;;;;;;16.92;51.32;100393.41;4985547;28;1130;-58
2022/08/06 06:50:18;;;;;;;;;;;;;;;16.84;51.09;100397.53;4991229;28;1070;-56
2022/08/06 06:52:44;;;;;;;;;;;;;;;16.82;50.67;100399.75;4988108;28;1160;-58
2022/08/06 06:55:14;;;;;;;;;;;;;;;16.86;50.43;100394.53;4995009;28;1910;-58
2022/08/06 06:57:41;;;;;;;;;;;;;;;16.80;50.42;100401.16;4996718;28;1236;-58
2022/08/06 07:00:07;;;;;;;;;;;;;;;16.87;50.02;100390.66;4994256;28;1101;-57
2022/08/06 07:02:34;;;;;;;;;;;;;;;16.76;50.11;100395.41;4998452;28;1133;-60
2022/08/06 07:05:02;;;;;;;;;;;;;;;16.85;49.94;100398.38;4995076;28;1074;-59
2022/08/06 07:07:29;;;;;;;;;;;;;;;16.82;49.97;100398.94;4983955;28;1861;-58
2022/08/06 07:09:54;;;;;;;;;;;;;;;16.81;49.92;100408.28;4997057;28;1129;-59
2022/08/06 07:12:20;;;;;;;;;;;;;;;16.83;49.84;100400.56;5012151;28;1010;-57
2022/08/06 07:14:46;;;;;;;;;;;;;;;16.77;49.87;100397.88;4998069;28;1906;-57
2022/08/06 07:17:12;;;;;;;;;;;;;;;16.75;49.95;100394.56;4998761;28;1054;-58
2022/08/06 07:19:37;;;;;;;;;;;;;;;16.74;49.97;100403.91;4992047;28;1161;-58
2022/08/06 07:22:03;;;;;;;;;;;;;;;16.88;49.64;100408.78;4992367;28;998;-57
2022/08/06 07:24:30;;;;;;;;;;;;;;;16.97;50.64;100398.03;4994622;28;1117;-56
2022/08/06 07:26:56;;;;;;;;;;;;;;;16.87;50.29;100398.91;5005661;28;1105;-59
2022/08/06 07:29:21;;;;;;;;;;;;;;;16.90;49.88;100396.44;4984454;28;1149;-59
2022/08/06 07:31:47;;;;;;;;;;;;;;;16.85;50.02;100403.88;5011126;28;990;-57
2022/08/06 07:34:13;;;;;;;;;;;;;;;16.90;49.63;100401.94;4990694;28;1910;-58
2022/08/06 07:36:44;;;;;;;;;;;;;;;16.91;49.50;100400.00;4994013;28;1786;-57
2022/08/06 07:39:10;;;;;;;;;;;;;;;16.94;49.25;100404.91;4989649;28;987;-58
2022/08/06 07:41:35;;;;;;;;;;;;;;;16.89;49.62;100405.78;4992821;28;1184;-57
2022/08/06 07:44:01;;;;;;;;;;;;;;;16.84;49.71;100400.28;4986927;28;983;-58
2022/08/06 07:46:29;;;;;;;;;;;;;;;16.76;49.51;100404.47;4986744;28;1102;-60
2022/08/06 07:48:55;;;;;;;;;;;;;;;16.85;49.56;100395.63;5000916;28;1007;-57
2022/08/06 07:51:24;;;;;;;;;;;;;;;16.89;49.46;100402.22;5006458;28;1077;-58
2022/08/06 07:53:50;;;;;;;;;;;;;;;16.85;49.55;100398.38;4984305;28;1248;-57
2022/08/06 07:56:15;;;;;;;;;;;;;;;16.83;49.79;100398.66;5004430;28;1917;-58
2022/08/06 07:58:41;;;;;;;;;;;;;;;16.83;49.76;100406.91;4989924;28;1062;-58
2022/08/06 08:01:06;;;;;;;;;;;;;;;16.82;49.64;100407.19;4989513;28;1176;-57
2022/08/06 08:06:18;;;;;;;;;;;;;;;17.76;50.52;100409.72;4990362;28;2322;-57
2022/08/06 08:08:44;;;;;;;;;;;;;;;17.34;52.08;100405.72;5008706;28;1026;-54
2022/08/06 08:11:10;;;;;;;;;;;;;;;17.18;51.39;100401.44;4991976;28;1232;-54
2022/08/06 08:13:35;;;;;;;;;;;;;;;17.21;50.62;100411.91;5008716;28;1311;-51
2022/08/06 08:16:01;;;;;;;;;;;;;;;17.13;50.18;100398.78;4992840;28;2273;-54
2022/08/06 08:18:30;;;;;;;;;;;;;;;17.05;49.98;100406.47;4997442;28;1050;-53
2022/08/06 08:20:56;;;;;;;;;;;;;;;16.99;49.88;100398.59;4990341;28;1136;-55
2022/08/06 08:23:22;;;;;;;;;;;;;;;17.03;49.49;100400.47;4985045;28;1062;-55
2022/08/06 08:25:47;;;;;;;;;;;;;;;16.94;49.63;100396.69;4990900;28;963;-55
2022/08/06 08:28:13;;;;;;;;;;;;;;;17.02;49.13;100387.84;4996093;28;991;-55
2022/08/06 08:30:39;;;;;;;;;;;;;;;17.02;49.29;100393.31;4996917;28;975;-55
2022/08/06 08:33:05;;;;;;;;;;;;;;;16.96;49.16;100389.00;4987820;28;1050;-54
2022/08/06 08:35:30;;;;;;;;;;;;;;;16.92;49.61;100393.41;4988085;28;2040;-52
2022/08/06 08:37:55;;;;;;;;;;;;;;;17.29;50.27;100400.25;4984561;28;2313;-52
2022/08/06 08:40:21;;;;;;;;;;;;;;;17.26;53.37;100403.59;4996870;28;1081;-52
2022/08/06 08:42:48;;;;;;;;;;;;;;;15.49;57.11;100407.31;4987418;28;1137;-54
2022/08/06 08:45:13;;;;;;;;;;;;;;;16.65;52.24;100411.13;4989669;28;1243;-54
2022/08/06 08:47:41;;;;;;;;;;;;;;;16.85;51.01;100403.88;4980257;28;1219;-51
2022/08/06 08:50:07;;;;;;;;;;;;;;;16.82;50.39;100399.75;4994172;28;1015;-56
2022/08/06 08:52:32;;;;;;;;;;;;;;;16.85;49.89;100410.16;4995664;28;1038;-55
2022/08/06 08:54:59;;;;;;;;;;;;;;;16.89;49.96;100407.72;4992921;28;1918;-54
2022/08/06 08:57:26;;;;;;;;;;;;;;;18.22;51.79;100408.44;4990034;28;1161;-54
2022/08/06 08:59:51;;;;;;;;;;;;;;;14.45;60.61;100401.94;4989387;28;1075;-52
2022/08/06 09:02:17;;;;;;;;;;;;;;;17.62;55.84;100408.78;4995665;28;1078;-54
2022/08/06 09:04:42;;;;;;;;;;;;;;;16.89;58.04;100408.53;5009434;28;1124;-52
2022/08/06 09:07:08;;;;;;;;;;;;;;;15.67;61.18;100413.31;5011910;28;2270;-53
2022/08/06 09:09:34;;;;;;;;;;;;;;;18.47;56.66;100420.25;4992589;28;1204;-52
2022/08/06 09:12:00;;;;;;;;;;;;;;;15.11;63.32;100412.25;4993810;28;1109;-53
2022/08/06 09:14:25;;;;;;;;;;;;;;;16.43;56.82;100408.75;4986333;28;1985;-54
2022/08/06 09:16:51;;;;;;;;;;;;;;;16.85;53.58;100395.63;4985649;28;971;-53
2022/08/06 09:19:16;;;;;;;;;;;;;;;16.87;52.55;100404.38;4981772;28;1169;-55
2022/08/06 09:21:42;;;;;;;;;;;;;;;18.27;55.51;100411.16;4990610;28;846;-55
2022/08/06 09:24:08;;;;;;;;;;;;;;;14.62;63.01;100404.44;4990502;28;1189;-53
2022/08/06 09:26:33;;;;;;;;;;;;;;;17.54;58.41;100406.66;5004338;28;1074;-55
2022/08/06 09:28:59;;;;;;;;;;;;;;;17.04;60.06;100407.63;4990004;28;948;-57
2022/08/06 09:31:24;;;;;;;;;;;;;;;15.98;63.67;100403.16;4996250;28;1002;-55
2022/08/06 09:33:57;;;;;;;;;;;;;;;18.73;58.37;100404.22;4997990;28;1009;-56
2022/08/06 09:36:22;;;;;;;;;;;;;;;15.33;64.57;100403.78;4989708;28;2405;-57
2022/08/06 09:38:49;;;;;;;;;;;;;;;16.57;58.74;100396.06;4986670;28;987;-52
2022/08/06 09:41:15;;;;;;;;;;;;;;;16.98;54.86;100405.19;4996400;28;1062;-57
2022/08/06 09:43:41;;;;;;;;;;;;;;;17.10;53.39;100400.16;4991314;28;971;-54
2022/08/06 09:46:06;;;;;;;;;;;;;;;17.80;55.16;100407.22;4990071;28;903;-56
2022/08/06 09:48:32;;;;;;;;;;;;;;;15.34;62.27;100401.84;4983258;28;1110;-57
2022/08/06 09:50:57;;;;;;;;;;;;;;;16.61;58.86;100410.03;4999355;28;1073;-57
2022/08/06 09:53:23;;;;;;;;;;;;;;;18.30;57.81;100412.50;4995085;28;1073;-56
2022/08/06 09:55:49;;;;;;;;;;;;;;;15.01;65.35;100418.53;4998264;28;1910;-55
2022/08/06 09:58:25;;;;;;;;;;;;;;;16.77;56.03;100419.84;4989080;28;1117;-54
2022/08/06 10:00:50;;;;;;;;;;;;;;;16.92;53.71;100418.94;4996501;28;1011;-57
2022/08/06 10:03:16;;;;;;;;;;;;;;;17.78;55.25;100425.94;5014710;28;987;-55
2022/08/06 10:05:43;;;;;;;;;;;;;;;15.29;61.41;100426.50;4998287;28;1054;-54
2022/08/06 10:08:13;;;;;;;;;;;;;;;17.36;60.23;100431.00;5014605;28;2411;-56
2022/08/06 10:10:45;;;;;;;;;;;;;;;18.52;58.13;100427.63;4990270;28;1030;-54
2022/08/06 10:13:16;;;;;;;;;;;;;;;15.30;65.10;100430.88;4999071;28;1164;-55
2022/08/06 10:15:44;;;;;;;;;;;;;;;16.83;56.35;100423.38;4992713;28;1910;-55
2022/08/06 10:18:10;;;;;;;;;;;;;;;17.08;53.69;100427.06;4999215;28;947;-55
2022/08/06 10:20:36;;;;;;;;;;;;;;;17.10;52.83;100438.63;4991903;28;1002;-55
2022/08/06 10:23:01;;;;;;;;;;;;;;;17.14;51.85;100433.34;4996690;28;995;-52
2022/08/06 10:25:29;;;;;;;;;;;;;;;18.15;54.80;100429.19;4997232;28;1022;-54
2022/08/06 10:27:55;;;;;;;;;;;;;;;14.73;62.31;100422.56;4994555;28;1003;-56
2022/08/06 10:30:20;;;;;;;;;;;;;;;17.73;58.61;100432.31;5003790;28;1026;-53
2022/08/06 10:32:53;;;;;;;;;;;;;;;17.34;60.18;100424.16;4996548;28;1054;-52
2022/08/06 10:35:20;;;;;;;;;;;;;;;15.77;62.02;100418.81;5014337;28;1894;-54
2022/08/06 10:37:47;;;;;;;;;;;;;;;16.91;55.75;100422.81;4987109;28;2309;-56
2022/08/06 10:40:14;;;;;;;;;;;;;;;17.07;53.60;100418.03;4998416;28;1033;-57
2022/08/06 10:42:40;;;;;;;;;;;;;;;17.14;52.51;100414.13;4992006;28;1026;-55
2022/08/06 10:45:05;;;;;;;;;;;;;;;17.04;52.19;100418.59;4996646;28;1073;-54
2022/08/06 10:47:32;;;;;;;;;;;;;;;17.14;51.36;100420.47;4997472;28;995;-55
2022/08/06 10:49:57;;;;;;;;;;;;;;;17.14;50.92;100420.47;4996234;28;1027;-55
2022/08/06 10:52:22;;;;;;;;;;;;;;;17.15;50.74;100413.84;5010972;28;1132;-52
2022/08/06 10:54:48;;;;;;;;;;;;;;;17.35;51.33;100403.78;4996222;28;1909;-57
2022/08/06 10:57:13;;;;;;;;;;;;;;;16.31;57.44;100411.81;4995349;28;1023;-54
2022/08/06 10:59:42;;;;;;;;;;;;;;;16.43;59.45;100414.25;4996049;28;959;-55
2022/08/06 11:02:22;;;;;;;;;;;;;;;18.77;56.64;100413.50;4994922;28;1062;-54
2022/08/06 11:04:59;;;;;;;;;;;;;;;14.85;64.58;100414.94;4993697;28;1110;-56
2022/08/06 11:07:43;;;;;;;;;;;;;;;16.83;56.28;100406.06;4992090;28;1876;-53
2022/08/06 11:10:14;;;;;;;;;;;;;;;17.12;53.58;100413.59;4990240;28;857;-56
2022/08/06 11:12:58;;;;;;;;;;;;;;;17.12;52.80;100403.41;4988939;28;1173;-53
2022/08/06 11:15:24;;;;;;;;;;;;;;;17.17;51.56;100405.34;4990789;28;1907;-50
2022/08/06 11:17:53;;;;;;;;;;;;;;;17.18;51.36;100415.19;4996845;28;1034;-52
2022/08/06 11:20:36;;;;;;;;;;;;;;;17.19;50.58;100419.59;4996084;28;999;-51
2022/08/06 11:23:21;;;;;;;;;;;;;;;17.14;50.56;100425.09;4988742;28;1168;-52
2022/08/06 11:25:48;;;;;;;;;;;;;;;17.13;50.19;100423.50;4995122;28;1186;-51
2022/08/06 11:28:13;;;;;;;;;;;;;;;17.36;54.25;100428.25;4994225;28;1077;-51
2022/08/06 11:30:42;;;;;;;;;;;;;;;15.40;58.45;100428.13;4991567;28;1031;-45
2022/08/06 11:33:10;;;;;;;;;;;;;;;18.32;56.17;100435.03;4989842;28;1137;-47
2022/08/06 11:35:35;;;;;;;;;;;;;;;15.32;62.71;100434.16;4987903;28;1902;-46
2022/08/06 11:38:07;;;;;;;;;;;;;;;16.51;57.06;100432.03;4986803;28;1740;-49
2022/08/06 11:40:52;;;;;;;;;;;;;;;16.97;53.73;100433.75;4997190;28;1002;-49
2022/08/06 11:43:36;;;;;;;;;;;;;;;17.09;51.82;100431.47;4994532;28;971;-50
2022/08/06 11:46:21;;;;;;;;;;;;;;;18.37;54.83;100431.38;4990353;28;998;-51
2022/08/06 11:48:59;;;;;;;;;;;;;;;15.32;61.62;100429.53;4985060;28;964;-48
2022/08/06 11:51:37;;;;;;;;;;;;;;;16.75;54.42;100421.22;4989909;28;967;-48
2022/08/06 11:54:12;;;;;;;;;;;;;;;16.99;52.59;100418.63;4992940;28;1914;-49
2022/08/06 11:56:55;;;;;;;;;;;;;;;18.27;54.47;100421.31;4997344;28;1082;-47
2022/08/06 11:59:21;;;;;;;;;;;;;;;14.97;61.93;100422.91;4987046;28;1172;-50
2022/08/06 12:01:47;;;;;;;;;;;;;;;18.06;57.31;100421.56;5005861;28;1007;-49
2022/08/06 12:04:30;;;;;;;;;;;;;;;15.90;62.10;100409.22;4993471;28;1197;-50
2022/08/06 12:07:14;;;;;;;;;;;;;;;16.43;58.06;100408.75;4988269;28;1830;-47
2022/08/06 12:09:40;;;;;;;;;;;;;;;17.75;56.28;100421.88;4984733;28;1050;-48
2022/08/06 12:12:23;;;;;;;;;;;;;;;17.41;55.03;100408.97;4990902;28;1042;-49
2022/08/06 12:14:49;;;;;;;;;;;;;;;17.31;53.24;100411.81;4984511;28;1971;-48
2022/08/06 12:17:14;;;;;;;;;;;;;;;17.25;52.42;100404.69;4996077;28;960;-50
2022/08/06 12:19:44;;;;;;;;;;;;;;;17.20;51.40;100400.06;4991644;28;1221;-51
2022/08/06 12:22:09;;;;;;;;;;;;;;;17.22;50.82;100392.38;4992636;28;999;-52
2022/08/06 12:24:35;;;;;;;;;;;;;;;17.24;50.39;100392.88;4987364;28;1090;-52
2022/08/06 12:27:00;;;;;;;;;;;;;;;17.19;50.40;100392.91;4985299;28;992;-50
2022/08/06 12:29:29;;;;;;;;;;;;;;;17.26;50.00;100387.09;4986237;28;1267;-49
2022/08/06 12:31:54;;;;;;;;;;;;;;;17.19;50.07;100387.44;4984777;28;967;-47
2022/08/06 12:34:25;;;;;;;;;;;;;;;17.13;49.83;100396.03;4984605;28;1989;-51
2022/08/06 12:36:50;;;;;;;;;;;;;;;17.19;49.59;100392.91;4983208;28;2349;-52
2022/08/06 12:39:16;;;;;;;;;;;;;;;17.02;53.87;100390.59;4989459;28;967;-48
2022/08/06 12:41:42;;;;;;;;;;;;;;;15.91;58.53;100381.50;4990931;28;1113;-50
2022/08/06 12:44:08;;;;;;;;;;;;;;;18.67;55.17;100385.31;4996407;28;1046;-50
2022/08/06 12:46:33;;;;;;;;;;;;;;;15.36;62.19;100375.81;4989355;28;1085;-49
2022/08/06 12:48:59;;;;;;;;;;;;;;;16.52;56.84;100378.78;4996294;28;998;-50
2022/08/06 12:51:25;;;;;;;;;;;;;;;16.97;53.30;100379.66;4986789;28;975;-50
2022/08/06 12:53:57;;;;;;;;;;;;;;;17.09;52.18;100382.84;4990785;28;1223;-49